Time;durP1;ratioP1;P1;durP2;ratioP2;P2;SDS_P1;SDS_P2;PMS_P1;PMS_P2;Temp;Humidity;BMP_temperature;BMP_pressure;BME280_temperature;BME280_humidity;BME280_pressure;Samples;Min_cycle;Max_cycle;Signal;HPM_P1;HPM_P2
2022/05/27 00:02:30;;;;;;;;;;;16.40;92.50;;;;;;5105715;28;19946;-83
2022/05/27 00:04:57;;;;;;;;;;;16.30;92.50;;;;;;5108662;28;20298;-84
2022/05/27 00:07:24;;;;;;;;;;;16.30;92.50;;;;;;5108904;28;19924;-84
2022/05/27 00:09:51;;;;;;;;;;;16.30;92.50;;;;;;5109384;28;19939;-83
2022/05/27 00:12:18;;;;;;;;;;;16.30;92.50;;;;;;5105797;28;19936;-83
2022/05/27 00:14:45;;;;;;;;;;;16.20;92.50;;;;;;5106987;28;20330;-83
2022/05/27 00:17:12;;;;;;;;;;;16.20;92.50;;;;;;5103881;28;19924;-84
2022/05/27 00:19:41;;;;;;;;;;;16.20;92.60;;;;;;5109714;28;19928;-84
2022/05/27 00:22:08;;;;;;;;;;;16.20;92.60;;;;;;5099909;28;19932;-84
2022/05/27 00:24:38;;;;;;;;;;;16.10;92.60;;;;;;5108494;28;19923;-83
2022/05/27 00:27:05;;;;;;;;;;;16.10;92.60;;;;;;5107330;28;20310;-83
2022/05/27 00:29:32;;;;;;;;;;;16.10;92.60;;;;;;5110331;27;19924;-83
2022/05/27 00:31:59;;;;;;;;;;;16.10;92.60;;;;;;5099170;28;19970;-83
2022/05/27 00:34:26;;;;;;;;;;;16.00;92.60;;;;;;5111219;27;19959;-84
2022/05/27 00:36:54;;;;;;;;;;;16.00;92.60;;;;;;5107103;28;19927;-84
2022/05/27 00:39:25;;;;;;;;;;;16.00;92.60;;;;;;5105792;28;19928;-84
2022/05/27 00:41:52;;;;;;;;;;;16.00;92.60;;;;;;5106590;28;20452;-83
2022/05/27 00:44:21;;;;;;;;;;;15.90;92.50;;;;;;5107584;28;19923;-83
2022/05/27 00:46:48;;;;;;;;;;;15.90;92.60;;;;;;5103724;28;20015;-83
2022/05/27 00:49:18;;;;;;;;;;;15.90;92.60;;;;;;5103979;28;19936;-84
2022/05/27 00:51:51;;;;;;;;;;;15.90;92.60;;;;;;5096815;28;20086;-84
2022/05/27 00:54:22;;;;;;;;;;;15.80;92.60;;;;;;5098173;28;19924;-84
2022/05/27 00:56:52;;;;;;;;;;;15.80;92.60;;;;;;5103900;28;20194;-84
2022/05/27 00:59:21;;;;;;;;;;;15.80;92.70;;;;;;5108390;28;19924;-83
2022/05/27 01:01:49;;;;;;;;;;;15.80;92.70;;;;;;5123333;27;19973;-83
2022/05/27 01:04:16;;;;;;;;;;;15.80;92.70;;;;;;5107680;28;19947;-83
2022/05/27 01:06:43;;;;;;;;;;;15.70;92.60;;;;;;5099083;27;20294;-83
2022/05/27 01:09:10;;;;;;;;;;;15.70;92.70;;;;;;5102325;28;19931;-83
2022/05/27 01:11:45;;;;;;;;;;;15.70;92.70;;;;;;5105346;27;19927;-84
2022/05/27 01:14:17;;;;;;;;;;;15.70;92.80;;;;;;5107442;28;19924;-84
2022/05/27 01:16:55;;;;;;;;;;;15.60;92.80;;;;;;5107399;28;19934;-83
2022/05/27 01:22:41;;;;;;;;;;;15.60;92.70;;;;;;5103836;28;20409;-83
2022/05/27 01:25:30;;;;;;;;;;;15.60;92.80;;;;;;5098321;28;20019;-84
2022/05/27 01:28:13;;;;;;;;;;;15.50;92.70;;;;;;5071213;28;20022;-83
2022/05/27 01:30:44;;;;;;;;;;;15.60;92.80;;;;;;5106613;28;19934;-84
2022/05/27 01:33:28;;;;;;;;;;;15.50;92.80;;;;;;5107186;28;19930;-84
2022/05/27 01:36:00;;;;;;;;;;;15.50;92.80;;;;;;5102626;28;19930;-84
2022/05/27 01:38:32;;;;;;;;;;;15.40;92.70;;;;;;5098776;28;20018;-84
2022/05/27 01:41:02;;;;;;;;;;;15.50;92.80;;;;;;5100944;28;19973;-83
2022/05/27 01:43:35;;;;;;;;;;;15.40;92.80;;;;;;5102546;27;20009;-83
2022/05/27 01:46:08;;;;;;;;;;;15.40;92.80;;;;;;5102210;28;19977;-83
2022/05/27 01:48:41;;;;;;;;;;;15.40;92.80;;;;;;5102344;28;19957;-83
2022/05/27 01:51:11;;;;;;;;;;;15.30;92.80;;;;;;5107691;28;20043;-82
2022/05/27 01:53:41;;;;;;;;;;;15.30;92.80;;;;;;5104769;28;19928;-84
2022/05/27 01:56:12;;;;;;;;;;;15.30;92.80;;;;;;5104511;28;20018;-83
2022/05/27 01:58:42;;;;;;;;;;;15.30;92.80;;;;;;5101075;28;19928;-84
2022/05/27 02:01:11;;;;;;;;;;;15.30;92.80;;;;;;5098907;28;20369;-83
2022/05/27 02:03:41;;;;;;;;;;;15.30;92.80;;;;;;5105819;28;19924;-83
2022/05/27 02:06:12;;;;;;;;;;;15.20;92.80;;;;;;5107062;28;19977;-83
2022/05/27 02:08:41;;;;;;;;;;;15.20;92.80;;;;;;5099899;28;20313;-83
2022/05/27 02:11:09;;;;;;;;;;;15.20;92.80;;;;;;5099537;28;20465;-84
2022/05/27 02:13:39;;;;;;;;;;;15.20;92.80;;;;;;5105357;28;20346;-83
2022/05/27 02:16:10;;;;;;;;;;;15.20;92.90;;;;;;5103247;28;19931;-84
2022/05/27 02:18:40;;;;;;;;;;;15.10;92.90;;;;;;5098397;28;19989;-84
2022/05/27 02:21:14;;;;;;;;;;;15.10;92.90;;;;;;5108862;27;20011;-84
2022/05/27 02:23:44;;;;;;;;;;;15.10;92.80;;;;;;5105301;28;19928;-84
2022/05/27 02:26:15;;;;;;;;;;;15.10;92.90;;;;;;5104022;28;19924;-83
2022/05/27 02:28:43;;;;;;;;;;;15.10;92.80;;;;;;5106734;27;20019;-84
2022/05/27 02:31:14;;;;;;;;;;;15.10;92.90;;;;;;5102642;28;20329;-83
2022/05/27 02:36:34;;;;;;;;;;;15.00;92.90;;;;;;5106166;28;19924;-83
2022/05/27 02:39:01;;;;;;;;;;;15.00;92.90;;;;;;5105703;28;19924;-83
2022/05/27 02:44:10;;;;;;;;;;;15.00;92.90;;;;;;5022300;28;20626;-87
2022/05/27 02:46:40;;;;;;;;;;;15.00;92.90;;;;;;5023751;28;20372;-88
2022/05/27 02:49:15;;;;;;;;;;;14.90;93.20;;;;;;5026985;28;20012;-87
2022/05/27 02:51:47;;;;;;;;;;;14.90;93.00;;;;;;5019378;28;19925;-88
2022/05/27 02:54:17;;;;;;;;;;;14.90;93.00;;;;;;5021027;28;19925;-87
2022/05/27 02:56:47;;;;;;;;;;;14.80;93.00;;;;;;5027952;28;19966;-86
2022/05/27 02:59:18;;;;;;;;;;;14.90;93.00;;;;;;5023584;28;19925;-87
2022/05/27 03:01:47;;;;;;;;;;;14.80;92.90;;;;;;5024085;28;19941;-87
2022/05/27 03:04:18;;;;;;;;;;;14.80;93.00;;;;;;5021030;28;19940;-88
2022/05/27 03:06:53;;;;;;;;;;;14.80;92.90;;;;;;5028409;28;20458;-87
2022/05/27 03:09:23;;;;;;;;;;;14.80;92.90;;;;;;5024995;28;20339;-87
2022/05/27 03:11:55;;;;;;;;;;;14.80;93.00;;;;;;5030635;28;19975;-87
2022/05/27 03:14:43;;;;;;;;;;;14.70;92.90;;;;;;5052483;28;19925;-87
2022/05/27 03:17:22;;;;;;;;;;;14.70;92.90;;;;;;5024501;28;19925;-87
2022/05/27 03:20:01;;;;;;;;;;;14.70;93.00;;;;;;5023555;28;20303;-87
2022/05/27 03:22:34;;;;;;;;;;;14.70;93.00;;;;;;5023304;28;19933;-87
2022/05/27 03:25:09;;;;;;;;;;;14.70;93.10;;;;;;5027370;28;19925;-87
2022/05/27 03:27:37;;;;;;;;;;;14.60;93.00;;;;;;5029698;28;19929;-86
2022/05/27 03:30:07;;;;;;;;;;;14.70;93.10;;;;;;5020329;28;19936;-87
2022/05/27 03:32:40;;;;;;;;;;;14.60;93.00;;;;;;5044564;28;19925;-87
2022/05/27 03:35:10;;;;;;;;;;;14.60;93.00;;;;;;5026853;28;19928;-87
2022/05/27 03:37:41;;;;;;;;;;;14.60;93.00;;;;;;5024454;28;19935;-87
2022/05/27 03:40:13;;;;;;;;;;;14.60;93.00;;;;;;5025532;28;20207;-87
2022/05/27 03:42:41;;;;;;;;;;;14.50;93.00;;;;;;5034898;28;19928;-87
2022/05/27 03:45:13;;;;;;;;;;;14.50;93.00;;;;;;5071816;28;19932;-87
2022/05/27 03:47:41;;;;;;;;;;;14.50;93.00;;;;;;5058611;28;20099;-88
2022/05/27 03:50:12;;;;;;;;;;;14.50;93.10;;;;;;5046000;28;19924;-86
2022/05/27 03:52:41;;;;;;;;;;;14.50;93.10;;;;;;5059935;28;19928;-87
2022/05/27 03:55:10;;;;;;;;;;;14.50;93.10;;;;;;5064891;28;19974;-87
2022/05/27 03:57:37;;;;;;;;;;;14.50;93.10;;;;;;5065472;28;19925;-87
2022/05/27 04:00:05;;;;;;;;;;;14.40;93.00;;;;;;5051288;28;20027;-86
2022/05/27 04:02:39;;;;;;;;;;;14.40;93.00;;;;;;5064382;28;20459;-87
2022/05/27 04:05:07;;;;;;;;;;;14.40;93.00;;;;;;5063575;28;19928;-87
2022/05/27 04:07:36;;;;;;;;;;;14.40;93.00;;;;;;5043111;28;20617;-87
2022/05/27 04:10:03;;;;;;;;;;;14.40;93.10;;;;;;5061618;28;19933;-87
2022/05/27 04:12:30;;;;;;;;;;;14.40;93.20;;;;;;5062881;28;20322;-87
2022/05/27 04:14:57;;;;;;;;;;;14.30;93.20;;;;;;5060335;28;19925;-87
2022/05/27 04:17:33;;;;;;;;;;;14.30;93.20;;;;;;5048893;28;20011;-87
2022/05/27 04:20:01;;;;;;;;;;;14.30;93.20;;;;;;5050134;28;19931;-87
2022/05/27 04:22:28;;;;;;;;;;;14.30;93.30;;;;;;5060504;28;19963;-86
2022/05/27 04:24:58;;;;;;;;;;;14.30;93.30;;;;;;5064927;28;20571;-87
2022/05/27 04:27:27;;;;;;;;;;;14.20;93.20;;;;;;5054962;28;19931;-87
2022/05/27 04:29:56;;;;;;;;;;;14.20;93.30;;;;;;5064081;28;19947;-87
2022/05/27 04:32:25;;;;;;;;;;;14.20;93.50;;;;;;5063498;28;19924;-87
2022/05/27 04:34:52;;;;;;;;;;;14.30;93.40;;;;;;5058395;28;19925;-87
2022/05/27 04:37:20;;;;;;;;;;;14.20;93.40;;;;;;5060460;28;20399;-87
2022/05/27 04:39:47;;;;;;;;;;;14.20;93.40;;;;;;5050483;28;20019;-88
2022/05/27 04:42:16;;;;;;;;;;;14.20;93.50;;;;;;5059164;28;20003;-88
2022/05/27 04:44:43;;;;;;;;;;;14.20;93.60;;;;;;5065146;28;19951;-87
2022/05/27 04:47:11;;;;;;;;;;;14.20;93.60;;;;;;5056988;28;20403;-87
2022/05/27 04:49:54;;;;;;;;;;;14.20;93.50;;;;;;5061062;28;20390;-87
2022/05/27 04:52:23;;;;;;;;;;;14.20;93.40;;;;;;5062709;28;19929;-87
2022/05/27 04:54:50;;;;;;;;;;;14.10;93.40;;;;;;5047829;28;20357;-87
2022/05/27 04:57:20;;;;;;;;;;;14.10;93.30;;;;;;5060088;28;19939;-87
2022/05/27 04:59:49;;;;;;;;;;;14.10;93.20;;;;;;5048308;28;20007;-87
2022/05/27 05:02:18;;;;;;;;;;;14.00;93.50;;;;;;5057325;28;19924;-87
2022/05/27 05:04:46;;;;;;;;;;;13.80;94.00;;;;;;5065641;28;19969;-87
2022/05/27 05:07:15;;;;;;;;;;;13.60;94.30;;;;;;5052852;28;19924;-88
2022/05/27 05:09:43;;;;;;;;;;;13.60;94.60;;;;;;5043532;28;20515;-87
2022/05/27 05:12:11;;;;;;;;;;;13.60;94.70;;;;;;5071123;28;19939;-88
2022/05/27 05:14:39;;;;;;;;;;;13.60;95.10;;;;;;5065894;28;20537;-87
2022/05/27 05:17:07;;;;;;;;;;;13.60;94.80;;;;;;5063804;28;20007;-87
2022/05/27 05:19:35;;;;;;;;;;;13.60;94.90;;;;;;5059855;28;19947;-88
2022/05/27 05:22:02;;;;;;;;;;;13.60;95.00;;;;;;5059326;28;19929;-88
2022/05/27 05:24:28;;;;;;;;;;;13.60;94.90;;;;;;5058160;28;20305;-88
2022/05/27 05:26:56;;;;;;;;;;;13.70;95.00;;;;;;5060242;28;20026;-88
2022/05/27 05:29:24;;;;;;;;;;;13.70;95.00;;;;;;5050193;28;20010;-87
2022/05/27 05:31:52;;;;;;;;;;;13.70;95.10;;;;;;5057733;28;20606;-87
2022/05/27 05:34:19;;;;;;;;;;;13.70;95.10;;;;;;5065067;28;19928;-87
2022/05/27 05:36:46;;;;;;;;;;;13.70;95.10;;;;;;5060438;28;19928;-88
2022/05/27 05:39:13;;;;;;;;;;;13.80;95.20;;;;;;5048837;28;19931;-87
2022/05/27 05:41:41;;;;;;;;;;;13.80;95.50;;;;;;5062433;28;20391;-87
2022/05/27 05:44:09;;;;;;;;;;;13.80;95.30;;;;;;5065956;28;19931;-87
2022/05/27 05:46:37;;;;;;;;;;;13.80;95.20;;;;;;5051844;28;19925;-87
2022/05/27 05:49:07;;;;;;;;;;;13.90;95.40;;;;;;5043016;28;19932;-87
2022/05/27 05:51:34;;;;;;;;;;;13.90;95.40;;;;;;5057607;28;19925;-87
2022/05/27 05:54:00;;;;;;;;;;;14.00;95.40;;;;;;5049650;28;20436;-86
2022/05/27 05:56:30;;;;;;;;;;;14.00;95.40;;;;;;5043827;28;19951;-88
2022/05/27 05:58:57;;;;;;;;;;;14.10;95.90;;;;;;5062078;28;19924;-87
2022/05/27 06:01:24;;;;;;;;;;;14.10;95.70;;;;;;5038268;28;19937;-88
2022/05/27 06:03:50;;;;;;;;;;;14.10;95.80;;;;;;5057983;28;19925;-91
2022/05/27 06:06:19;;;;;;;;;;;14.10;95.80;;;;;;5058889;28;20452;-90
2022/05/27 06:08:46;;;;;;;;;;;14.10;95.80;;;;;;5046610;28;20015;-91
2022/05/27 06:11:14;;;;;;;;;;;14.20;95.80;;;;;;5061513;28;19929;-91
2022/05/27 06:13:41;;;;;;;;;;;14.20;95.80;;;;;;5044210;28;20447;-90
2022/05/27 06:16:09;;;;;;;;;;;14.20;95.80;;;;;;5044572;28;19932;-91
2022/05/27 06:18:36;;;;;;;;;;;14.30;95.90;;;;;;5049592;28;19924;-91
2022/05/27 06:21:03;;;;;;;;;;;14.30;96.00;;;;;;5041611;28;20014;-90
2022/05/27 06:23:32;;;;;;;;;;;14.30;96.00;;;;;;5064233;28;19924;-90
2022/05/27 06:26:02;;;;;;;;;;;14.30;96.00;;;;;;5060724;28;19936;-89
2022/05/27 06:36:42;;;;;;;;;;;14.40;96.70;;;;;;5041547;28;19924;-87
2022/05/27 06:39:10;;;;;;;;;;;14.40;96.60;;;;;;5044001;28;20504;-90
2022/05/27 06:41:39;;;;;;;;;;;14.40;96.60;;;;;;5067778;28;19925;-90
2022/05/27 06:44:07;;;;;;;;;;;14.40;96.80;;;;;;5074526;28;19925;-91
2022/05/27 06:46:34;;;;;;;;;;;14.40;96.80;;;;;;5048696;28;19925;-89
2022/05/27 06:49:01;;;;;;;;;;;14.50;97.00;;;;;;5062914;28;19924;-90
2022/05/27 06:51:29;;;;;;;;;;;14.50;96.90;;;;;;5064100;28;20012;-90
2022/05/27 06:53:56;;;;;;;;;;;14.50;97.10;;;;;;5040443;28;20371;-90
2022/05/27 06:56:25;;;;;;;;;;;14.50;97.20;;;;;;5042244;28;19929;-90
2022/05/27 06:58:52;;;;;;;;;;;14.50;97.20;;;;;;5058398;28;20023;-90
2022/05/27 07:01:19;;;;;;;;;;;14.50;97.30;;;;;;5042358;28;19933;-89
2022/05/27 07:03:46;;;;;;;;;;;14.50;97.50;;;;;;5057228;28;19982;-90
2022/05/27 07:06:14;;;;;;;;;;;14.50;97.60;;;;;;5044370;28;20008;-86
2022/05/27 07:08:43;;;;;;;;;;;14.50;97.60;;;;;;5062833;28;19925;-86
2022/05/27 07:11:10;;;;;;;;;;;14.60;97.50;;;;;;5057050;28;19951;-87
2022/05/27 07:13:39;;;;;;;;;;;14.60;97.50;;;;;;5065864;28;19925;-85
2022/05/27 07:16:06;;;;;;;;;;;14.60;97.80;;;;;;5059927;28;20364;-87
2022/05/27 07:18:33;;;;;;;;;;;14.60;97.60;;;;;;5048191;28;19931;-87
2022/05/27 07:21:01;;;;;;;;;;;14.60;97.70;;;;;;5047161;28;19929;-86
2022/05/27 07:23:27;;;;;;;;;;;14.70;97.90;;;;;;5063254;28;19932;-87
2022/05/27 07:25:55;;;;;;;;;;;14.70;97.80;;;;;;5065661;28;19928;-86
2022/05/27 07:28:22;;;;;;;;;;;14.70;97.90;;;;;;5043135;28;19924;-86
2022/05/27 07:30:50;;;;;;;;;;;14.70;97.90;;;;;;5055938;28;20291;-87
2022/05/27 07:33:17;;;;;;;;;;;14.70;98.10;;;;;;5061494;28;20011;-86
2022/05/27 07:35:44;;;;;;;;;;;14.70;98.10;;;;;;5061403;28;19925;-87
2022/05/27 07:38:12;;;;;;;;;;;14.80;98.20;;;;;;5065730;28;19931;-87
2022/05/27 07:40:39;;;;;;;;;;;14.80;98.20;;;;;;5062968;28;19946;-86
2022/05/27 07:43:07;;;;;;;;;;;14.80;98.20;;;;;;5058186;28;19924;-87
2022/05/27 07:45:36;;;;;;;;;;;14.80;98.20;;;;;;5055703;28;19924;-86
2022/05/27 07:48:05;;;;;;;;;;;14.80;98.10;;;;;;5040531;28;19939;-87
2022/05/27 07:50:32;;;;;;;;;;;14.80;98.00;;;;;;5046846;28;19933;-86
2022/05/27 07:52:59;;;;;;;;;;;14.80;98.00;;;;;;5044868;28;19924;-87
2022/05/27 07:55:26;;;;;;;;;;;14.90;98.10;;;;;;5060986;28;20032;-86
2022/05/27 07:57:53;;;;;;;;;;;14.90;98.10;;;;;;5056119;28;19928;-88
2022/05/27 08:00:21;;;;;;;;;;;14.90;98.10;;;;;;5065769;28;19934;-88
2022/05/27 08:02:48;;;;;;;;;;;14.90;98.10;;;;;;5063515;28;20331;-88
2022/05/27 08:05:18;;;;;;;;;;;14.90;98.20;;;;;;5060667;28;19962;-88
2022/05/27 08:07:45;;;;;;;;;;;14.90;98.20;;;;;;5055932;28;19967;-87
2022/05/27 08:10:14;;;;;;;;;;;14.90;98.30;;;;;;5071166;28;19928;-87
2022/05/27 08:12:41;;;;;;;;;;;15.00;98.40;;;;;;5052972;28;21784;-87
2022/05/27 08:15:11;;;;;;;;;;;15.00;98.30;;;;;;5065543;28;19925;-87
2022/05/27 08:17:38;;;;;;;;;;;15.00;98.30;;;;;;5066954;28;19924;-87
2022/05/27 08:20:07;;;;;;;;;;;15.00;98.20;;;;;;5064544;28;19924;-88
2022/05/27 08:22:36;;;;;;;;;;;15.00;98.20;;;;;;5070226;28;20433;-88
2022/05/27 08:25:03;;;;;;;;;;;15.00;98.20;;;;;;5058535;28;20717;-88
2022/05/27 08:27:30;;;;;;;;;;;15.00;98.30;;;;;;5064768;28;19931;-88
2022/05/27 08:29:57;;;;;;;;;;;15.00;98.20;;;;;;5058420;28;20379;-87
2022/05/27 08:32:24;;;;;;;;;;;15.10;98.40;;;;;;5064057;28;19967;-86
2022/05/27 08:40:27;;;;;;;;;;;15.20;98.60;;;;;;5047909;28;19924;-91
2022/05/27 08:42:58;;;;;;;;;;;15.20;98.60;;;;;;5066732;28;19932;-87
2022/05/27 08:45:32;;;;;;;;;;;15.20;98.70;;;;;;5055337;28;19986;-87
2022/05/27 08:48:03;;;;;;;;;;;15.20;98.70;;;;;;5065722;28;19929;-87
2022/05/27 08:50:32;;;;;;;;;;;15.20;98.70;;;;;;5062234;28;20390;-84
2022/05/27 08:53:05;;;;;;;;;;;15.30;98.80;;;;;;5063623;28;19928;-87
2022/05/27 09:01:11;;;;;;;;;;;15.30;98.80;;;;;;5064582;28;20383;-84
2022/05/27 09:03:41;;;;;;;;;;;15.30;98.90;;;;;;5063790;28;19933;-85
2022/05/27 09:06:09;;;;;;;;;;;15.40;98.80;;;;;;5060857;28;19929;-83
2022/05/27 09:08:39;;;;;;;;;;;15.40;98.80;;;;;;5063633;28;19924;-83
2022/05/27 09:11:12;;;;;;;;;;;15.40;98.60;;;;;;5064821;28;19925;-84
2022/05/27 09:13:46;;;;;;;;;;;15.40;98.60;;;;;;5066535;28;19925;-84
2022/05/27 09:16:17;;;;;;;;;;;15.40;98.50;;;;;;5044144;28;19931;-84
2022/05/27 09:18:49;;;;;;;;;;;15.40;98.20;;;;;;5062886;28;19932;-86
2022/05/27 09:21:22;;;;;;;;;;;15.40;98.20;;;;;;5061534;28;20081;-84
2022/05/27 09:23:56;;;;;;;;;;;15.40;98.20;;;;;;5062088;28;19932;-86
2022/05/27 09:26:27;;;;;;;;;;;15.50;98.20;;;;;;5068446;28;19928;-87
2022/05/27 09:29:23;;;;;;;;;;;15.50;98.20;;;;;;5060635;28;19936;-85
2022/05/27 09:31:52;;;;;;;;;;;15.60;98.20;;;;;;5059029;28;19924;-84
2022/05/27 09:34:20;;;;;;;;;;;15.60;98.10;;;;;;5050336;28;19939;-82
2022/05/27 09:36:50;;;;;;;;;;;15.60;98.10;;;;;;5062751;28;19924;-83
2022/05/27 09:39:20;;;;;;;;;;;15.70;98.10;;;;;;5068987;28;19948;-84
2022/05/27 09:41:53;;;;;;;;;;;15.70;98.20;;;;;;5064020;28;19924;-82
2022/05/27 09:44:24;;;;;;;;;;;15.70;98.00;;;;;;5065299;28;19931;-82
2022/05/27 09:46:52;;;;;;;;;;;15.70;97.80;;;;;;5066402;28;19936;-82
2022/05/27 09:49:19;;;;;;;;;;;15.80;97.80;;;;;;5066076;28;19987;-82
2022/05/27 09:51:45;;;;;;;;;;;15.80;97.70;;;;;;5063129;28;19924;-82
2022/05/27 09:54:27;;;;;;;;;;;15.80;97.90;;;;;;5044506;28;19946;-81
2022/05/27 09:57:02;;;;;;;;;;;15.80;97.80;;;;;;5046834;28;19936;-82
2022/05/27 09:59:34;;;;;;;;;;;15.90;97.80;;;;;;5059018;28;19924;-83
2022/05/27 10:02:18;;;;;;;;;;;15.90;97.90;;;;;;5040959;28;19929;-83
2022/05/27 10:04:53;;;;;;;;;;;15.90;97.80;;;;;;5048756;28;19931;-82
2022/05/27 10:07:27;;;;;;;;;;;15.90;97.90;;;;;;5063689;28;19928;-82
2022/05/27 10:09:55;;;;;;;;;;;15.90;97.50;;;;;;5063476;28;19936;-82
2022/05/27 10:12:30;;;;;;;;;;;15.90;97.60;;;;;;5057577;28;19924;-82
2022/05/27 10:14:57;;;;;;;;;;;15.90;97.50;;;;;;5054284;28;19929;-81
2022/05/27 10:17:29;;;;;;;;;;;15.90;97.50;;;;;;5060754;28;19978;-82
2022/05/27 10:20:14;;;;;;;;;;;16.00;97.60;;;;;;5056331;28;19924;-82
2022/05/27 10:22:41;;;;;;;;;;;16.00;97.40;;;;;;5057248;28;19932;-82
2022/05/27 10:25:11;;;;;;;;;;;16.00;97.10;;;;;;5063976;28;19932;-83
2022/05/27 10:27:40;;;;;;;;;;;16.00;97.10;;;;;;5057861;28;20114;-83
2022/05/27 10:30:09;;;;;;;;;;;16.00;97.00;;;;;;5061116;28;19928;-82
2022/05/27 10:32:43;;;;;;;;;;;16.00;96.80;;;;;;5058487;28;20516;-82
2022/05/27 10:35:23;;;;;;;;;;;16.10;96.70;;;;;;5061796;28;20020;-83
2022/05/27 10:37:53;;;;;;;;;;;16.00;96.60;;;;;;5061732;28;20015;-83
2022/05/27 10:40:25;;;;;;;;;;;16.10;96.60;;;;;;5066890;28;19939;-82
2022/05/27 10:42:58;;;;;;;;;;;16.10;96.50;;;;;;5059387;28;19933;-83
2022/05/27 10:45:31;;;;;;;;;;;16.10;96.30;;;;;;5063263;28;19933;-82
2022/05/27 10:48:19;;;;;;;;;;;16.20;96.20;;;;;;5060084;28;19948;-83
2022/05/27 10:50:48;;;;;;;;;;;16.20;96.30;;;;;;5048046;28;20004;-81
2022/05/27 10:53:32;;;;;;;;;;;16.20;96.00;;;;;;5060558;28;19933;-84
2022/05/27 10:56:03;;;;;;;;;;;16.20;95.80;;;;;;5037093;28;19996;-82
2022/05/27 11:04:31;;;;;;;;;;;16.40;95.90;;;;;;5058208;28;19946;-81
2022/05/27 11:07:03;;;;;;;;;;;16.40;95.90;;;;;;5053013;28;19933;-83
2022/05/27 11:09:34;;;;;;;;;;;16.40;95.80;;;;;;5063632;28;19947;-81
2022/05/27 11:12:05;;;;;;;;;;;16.40;96.00;;;;;;5059002;28;19960;-81
2022/05/27 11:17:31;;;;;;;;;;;16.50;96.10;;;;;;5057483;28;19928;-82
2022/05/27 11:20:08;;;;;;;;;;;16.50;96.00;;;;;;5060691;28;20015;-81
2022/05/27 11:22:37;;;;;;;;;;;16.50;95.90;;;;;;5051823;28;20517;-81
2022/05/27 11:25:19;;;;;;;;;;;16.60;96.00;;;;;;5059235;28;20001;-84
2022/05/27 11:27:57;;;;;;;;;;;16.60;96.00;;;;;;5039340;28;19933;-79
2022/05/27 11:30:32;;;;;;;;;;;16.60;95.90;;;;;;5049084;28;19928;-82
2022/05/27 11:33:06;;;;;;;;;;;16.60;96.00;;;;;;5060092;28;19925;-83
2022/05/27 11:35:40;;;;;;;;;;;16.60;96.10;;;;;;5047126;28;19932;-82
2022/05/27 11:38:14;;;;;;;;;;;16.70;96.10;;;;;;5063313;28;19932;-83
2022/05/27 11:40:45;;;;;;;;;;;16.70;95.70;;;;;;5062356;28;20327;-82
2022/05/27 11:43:22;;;;;;;;;;;16.70;95.30;;;;;;5053781;28;19936;-84
2022/05/27 11:45:58;;;;;;;;;;;16.70;95.40;;;;;;5055631;28;21910;-83
2022/05/27 11:48:27;;;;;;;;;;;16.80;95.30;;;;;;5053116;28;19933;-84
2022/05/27 11:51:05;;;;;;;;;;;16.80;95.30;;;;;;5059475;28;19932;-82
2022/05/27 11:53:38;;;;;;;;;;;16.80;95.30;;;;;;5049506;28;20055;-83
2022/05/27 11:56:08;;;;;;;;;;;16.80;95.40;;;;;;5064363;28;19967;-84
2022/05/27 11:58:42;;;;;;;;;;;16.80;95.40;;;;;;5065676;28;20575;-83
2022/05/27 12:01:12;;;;;;;;;;;16.80;95.50;;;;;;5048406;28;19931;-83
2022/05/27 12:03:44;;;;;;;;;;;16.90;95.40;;;;;;5061555;28;20955;-84
2022/05/27 12:06:15;;;;;;;;;;;16.90;95.50;;;;;;5065464;28;19932;-82
2022/05/27 12:08:44;;;;;;;;;;;16.90;95.50;;;;;;5045591;28;20039;-83
2022/05/27 12:11:14;;;;;;;;;;;16.90;95.50;;;;;;5060445;28;19928;-83
2022/05/27 12:13:43;;;;;;;;;;;17.00;95.50;;;;;;5058905;28;20602;-84
2022/05/27 12:16:14;;;;;;;;;;;17.00;95.60;;;;;;5052645;28;19925;-83
2022/05/27 12:18:44;;;;;;;;;;;17.20;95.40;;;;;;5160284;22;19928;-83
2022/05/27 12:21:12;;;;;;;;;;;17.10;95.40;;;;;;5105339;28;19924;-82
2022/05/27 12:23:41;;;;;;;;;;;17.20;95.30;;;;;;5100864;28;19935;-83
2022/05/27 12:26:09;;;;;;;;;;;17.30;95.20;;;;;;5089065;28;19955;-83
2022/05/27 12:28:40;;;;;;;;;;;17.30;95.20;;;;;;5087755;28;20290;-84
2022/05/27 12:31:07;;;;;;;;;;;17.30;95.20;;;;;;5087878;28;20023;-81
2022/05/27 12:33:36;;;;;;;;;;;17.30;95.20;;;;;;5090985;28;19931;-82
2022/05/27 12:36:05;;;;;;;;;;;17.30;95.40;;;;;;5085606;28;19936;-81
2022/05/27 12:38:33;;;;;;;;;;;17.40;95.40;;;;;;5087370;28;19939;-83
2022/05/27 12:41:01;;;;;;;;;;;17.40;95.50;;;;;;5099609;28;19928;-81
2022/05/27 12:43:29;;;;;;;;;;;17.40;95.40;;;;;;5092255;28;19924;-81
2022/05/27 12:46:13;;;;;;;;;;;17.50;95.50;;;;;;5105253;28;20429;-80
2022/05/27 12:48:42;;;;;;;;;;;17.50;95.40;;;;;;5080540;28;20345;-82
2022/05/27 12:51:29;;;;;;;;;;;17.50;95.40;;;;;;5099924;28;19928;-82
2022/05/27 12:53:57;;;;;;;;;;;17.60;95.00;;;;;;5103885;27;19932;-81
2022/05/27 13:02:45;;;;;;;;;;;17.70;95.30;;;;;;5085896;28;19985;-80
2022/05/27 13:05:17;;;;;;;;;;;17.80;95.40;;;;;;5094062;28;19932;-81
2022/05/27 13:07:45;;;;;;;;;;;17.80;95.30;;;;;;5082280;28;19977;-80
2022/05/27 13:10:31;;;;;;;;;;;17.90;95.30;;;;;;5087470;28;20383;-81
2022/05/27 13:13:02;;;;;;;;;;;17.90;95.10;;;;;;5083285;28;20026;-78
2022/05/27 13:15:31;;;;;;;;;;;17.90;95.40;;;;;;5102967;28;19950;-79
2022/05/27 13:18:09;;;;;;;;;;;17.90;95.20;;;;;;5097469;27;20023;-79
2022/05/27 13:20:51;;;;;;;;;;;18.00;95.20;;;;;;5080456;28;19938;-82
2022/05/27 13:23:19;;;;;;;;;;;18.00;95.20;;;;;;5097579;28;19985;-79
2022/05/27 13:25:57;;;;;;;;;;;18.10;95.20;;;;;;5081200;28;19935;-80
2022/05/27 13:28:28;;;;;;;;;;;18.10;95.30;;;;;;5077227;28;19946;-82
2022/05/27 13:31:04;;;;;;;;;;;18.10;95.10;;;;;;5071789;28;19955;-79
2022/05/27 13:33:34;;;;;;;;;;;18.20;94.90;;;;;;5075853;28;20026;-79
2022/05/27 13:36:03;;;;;;;;;;;18.20;95.20;;;;;;5094682;27;20162;-78
2022/05/27 13:38:32;;;;;;;;;;;18.30;95.20;;;;;;5080467;28;19954;-81
2022/05/27 13:40:59;;;;;;;;;;;;;;;;;;5075906;28;19999;-79
2022/05/27 13:43:26;;;;;;;;;;;;;;;;;;5081443;28;20123;-80
2022/05/27 13:45:55;;;;;;;;;;;19.60;93.60;;;;;;5083115;28;19928;-79
2022/05/27 13:48:24;;;;;;;;;;;19.70;93.70;;;;;;5085119;28;20395;-79
2022/05/27 13:51:05;;;;;;;;;;;20.00;93.20;;;;;;5077391;28;23798;-79
2022/05/27 13:53:35;;;;;;;;;;;20.60;92.70;;;;;;5077143;28;19924;-79
2022/05/27 13:56:08;;;;;;;;;;;20.80;92.50;;;;;;5083461;28;19928;-79
2022/05/27 13:58:36;;;;;;;;;;;21.20;92.20;;;;;;5077833;28;19924;-79
2022/05/27 14:01:03;;;;;;;;;;;;;;;;;;5076647;28;20031;-82
2022/05/27 14:03:32;;;;;;;;;;;21.80;90.70;;;;;;5100308;27;20356;-81
2022/05/27 14:06:00;;;;;;;;;;;21.80;90.80;;;;;;5083613;28;19932;-81
2022/05/27 14:08:36;;;;;;;;;;;21.70;91.00;;;;;;5082400;28;20394;-81
2022/05/27 14:11:07;;;;;;;;;;;21.70;91.10;;;;;;5081100;28;20622;-81
2022/05/27 14:13:34;;;;;;;;;;;22.00;90.70;;;;;;5102212;28;19931;-81
2022/05/27 14:16:01;;;;;;;;;;;23.20;90.80;;;;;;5084270;28;19924;-79
2022/05/27 14:18:31;;;;;;;;;;;22.60;90.10;;;;;;5079972;28;19939;-81
2022/05/27 14:23:45;;;;;;;;;;;22.70;90.20;;;;;;5080355;28;19927;-81
2022/05/27 14:26:13;;;;;;;;;;;22.70;90.10;;;;;;5097799;27;19931;-80
2022/05/27 14:28:41;;;;;;;;;;;22.50;90.00;;;;;;5093369;28;19928;-83
2022/05/27 14:31:11;;;;;;;;;;;22.40;90.00;;;;;;5075854;28;19932;-82
2022/05/27 14:33:39;;;;;;;;;;;22.30;90.20;;;;;;5076714;28;19924;-81
2022/05/27 14:36:08;;;;;;;;;;;22.20;90.30;;;;;;5078651;28;19963;-81
2022/05/27 14:38:36;;;;;;;;;;;22.10;90.20;;;;;;5076527;28;19985;-82
2022/05/27 14:41:05;;;;;;;;;;;22.10;90.10;;;;;;5089632;28;19936;-82
2022/05/27 14:43:36;;;;;;;;;;;21.90;90.00;;;;;;5079722;28;20397;-81
2022/05/27 14:46:13;;;;;;;;;;;21.80;90.10;;;;;;5079630;28;19936;-82
2022/05/27 14:48:41;;;;;;;;;;;21.70;90.10;;;;;;5079524;28;19924;-82
2022/05/27 14:51:15;;;;;;;;;;;21.70;90.30;;;;;;5071835;28;20024;-81
2022/05/27 14:53:42;;;;;;;;;;;21.60;90.20;;;;;;5096624;28;19932;-82
2022/05/27 14:56:12;;;;;;;;;;;21.50;90.30;;;;;;5093327;28;20024;-80
2022/05/27 14:58:39;;;;;;;;;;;21.50;90.00;;;;;;5086577;28;20015;-82
2022/05/27 15:01:11;;;;;;;;;;;21.40;90.10;;;;;;5092956;28;19924;-81
2022/05/27 15:03:40;;;;;;;;;;;21.20;90.10;;;;;;5083628;28;19973;-81
2022/05/27 15:06:09;;;;;;;;;;;21.10;90.30;;;;;;5082244;28;20032;-81
2022/05/27 15:08:36;;;;;;;;;;;21.00;90.10;;;;;;5078200;28;22019;-82
2022/05/27 15:11:04;;;;;;;;;;;20.90;90.00;;;;;;5085566;28;20303;-82
2022/05/27 15:13:43;;;;;;;;;;;20.80;90.00;;;;;;5082579;28;19928;-82
2022/05/27 15:16:12;;;;;;;;;;;20.70;90.20;;;;;;5087653;28;20416;-82
2022/05/27 15:18:43;;;;;;;;;;;20.70;90.30;;;;;;5083016;28;20647;-85
2022/05/27 15:21:11;;;;;;;;;;;20.80;90.50;;;;;;5103721;28;19928;-79
2022/05/27 15:23:41;;;;;;;;;;;20.60;90.40;;;;;;5084991;28;21568;-81